Time;durP1;ratioP1;P1;durP2;ratioP2;P2;SDS_P1;SDS_P2;PMS_P1;PMS_P2;Temp;Humidity;BMP_temperature;BMP_pressure;BME280_temperature;BME280_humidity;BME280_pressure;Samples;Min_cycle;Max_cycle;Signal;HPM_P1;HPM_P2
2022/03/23 00:01:41;;;;;;;33.73;21.23;;;5.80;54.80;;;;;;5060251;28;20221;-69
2022/03/23 00:04:09;;;;;;;28.50;20.73;;;5.70;55.30;;;;;;5054446;28;20209;-69
2022/03/23 00:06:38;;;;;;;33.63;20.13;;;5.60;55.70;;;;;;5063263;28;20738;-69
2022/03/23 00:09:05;;;;;;;33.13;21.03;;;5.60;56.20;;;;;;5063506;28;20219;-69
2022/03/23 00:11:33;;;;;;;34.17;21.10;;;5.60;56.40;;;;;;5067760;28;20296;-69
2022/03/23 00:14:00;;;;;;;33.97;22.00;;;5.50;56.30;;;;;;5071472;28;20223;-69
2022/03/23 00:16:27;;;;;;;38.57;20.93;;;5.50;56.30;;;;;;5069373;28;20267;-69
2022/03/23 00:18:54;;;;;;;30.80;20.63;;;5.50;56.40;;;;;;5062595;28;20213;-70
2022/03/23 00:21:22;;;;;;;34.17;20.87;;;5.50;56.50;;;;;;5065841;28;20703;-70
2022/03/23 00:23:49;;;;;;;32.70;20.50;;;5.50;56.60;;;;;;5063653;28;20277;-70
2022/03/23 00:26:16;;;;;;;29.60;19.93;;;5.50;56.70;;;;;;5058663;28;20285;-70
2022/03/23 00:28:46;;;;;;;31.17;20.53;;;5.50;56.60;;;;;;5057383;28;20258;-70
2022/03/23 00:31:14;;;;;;;33.20;21.33;;;5.50;56.60;;;;;;5069122;28;20224;-70
2022/03/23 00:33:41;;;;;;;35.43;22.20;;;5.50;56.50;;;;;;5066994;28;20545;-70
2022/03/23 00:36:09;;;;;;;32.87;20.47;;;5.60;56.50;;;;;;5061867;28;20209;-70
2022/03/23 00:38:36;;;;;;;31.17;19.80;;;5.60;56.50;;;;;;5072549;28;20616;-70
2022/03/23 00:41:03;;;;;;;26.90;19.37;;;5.60;56.40;;;;;;5058876;28;20229;-70
2022/03/23 00:43:31;;;;;;;31.93;20.10;;;5.60;56.20;;;;;;5068800;28;20205;-70
2022/03/23 00:45:59;;;;;;;27.93;20.20;;;5.60;56.20;;;;;;5079047;28;20651;-70
2022/03/23 00:48:26;;;;;;;32.63;20.23;;;5.60;56.20;;;;;;5056342;28;20260;-70
2022/03/23 00:50:55;;;;;;;28.67;20.73;;;5.60;56.20;;;;;;5053952;28;20221;-70
2022/03/23 00:53:22;;;;;;;31.43;19.97;;;5.60;56.30;;;;;;5039022;28;20213;-70
2022/03/23 00:55:50;;;;;;;28.13;19.20;;;5.50;56.20;;;;;;5070455;28;20213;-70
2022/03/23 00:58:17;;;;;;;29.87;19.47;;;5.50;56.20;;;;;;5068306;28;20208;-70
2022/03/23 01:00:45;;;;;;;27.47;19.37;;;5.50;56.40;;;;;;5060316;28;20224;-70
2022/03/23 01:03:12;;;;;;;32.03;19.87;;;5.50;56.40;;;;;;5069187;28;20210;-70
2022/03/23 01:05:40;;;;;;;29.10;20.00;;;5.50;56.30;;;;;;5054928;28;20270;-70
2022/03/23 01:08:10;;;;;;;28.33;18.43;;;5.40;56.60;;;;;;5056514;28;20798;-70
2022/03/23 01:10:37;;;;;;;32.03;20.00;;;5.40;56.80;;;;;;5060524;28;20618;-70
2022/03/23 01:13:04;;;;;;;34.53;20.47;;;5.40;56.80;;;;;;5050399;28;20209;-70
2022/03/23 01:15:33;;;;;;;29.00;19.47;;;5.40;56.90;;;;;;5063246;28;20275;-70
2022/03/23 01:18:00;;;;;;;28.10;18.70;;;5.40;56.80;;;;;;5054746;28;20224;-70
2022/03/23 01:20:30;;;;;;;29.03;19.30;;;5.40;56.90;;;;;;5065382;28;20602;-70
2022/03/23 01:22:57;;;;;;;28.30;19.47;;;5.30;56.90;;;;;;5061221;28;20212;-70
2022/03/23 01:25:24;;;;;;;28.63;20.60;;;5.30;57.00;;;;;;5034232;28;20229;-70
2022/03/23 01:27:51;;;;;;;30.47;19.30;;;5.30;57.20;;;;;;5037237;28;20264;-70
2022/03/23 01:30:18;;;;;;;31.40;20.57;;;5.30;57.50;;;;;;5067701;28;20206;-70
2022/03/23 01:32:46;;;;;;;34.13;19.63;;;5.30;57.50;;;;;;5071145;28;20606;-70
2022/03/23 01:35:13;;;;;;;32.50;20.23;;;5.20;57.30;;;;;;5063185;28;20212;-70
2022/03/23 01:37:40;;;;;;;30.77;20.53;;;5.20;57.50;;;;;;5053518;28;20295;-70
2022/03/23 01:40:10;;;;;;;27.87;19.13;;;5.20;57.50;;;;;;5061752;28;20211;-70
2022/03/23 01:42:38;;;;;;;32.27;21.30;;;5.20;57.60;;;;;;5070067;28;20570;-70
2022/03/23 01:45:10;;;;;;;25.37;18.70;;;5.10;57.80;;;;;;5085232;28;20247;-70
2022/03/23 01:47:37;;;;;;;33.07;21.00;;;5.10;57.90;;;;;;5058907;28;20224;-70
2022/03/23 01:50:06;;;;;;;27.93;19.53;;;5.10;58.00;;;;;;5053610;28;20246;-70
2022/03/23 01:52:33;;;;;;;27.87;19.40;;;5.10;58.20;;;;;;5059888;28;20215;-70
2022/03/23 01:55:04;;;;;;;29.60;19.90;;;5.10;58.40;;;;;;5056240;28;20262;-70
2022/03/23 01:57:34;;;;;;;31.63;19.77;;;5.00;58.50;;;;;;5060986;28;20202;-70
2022/03/23 02:00:00;;;;;;;29.57;19.73;;;5.00;58.20;;;;;;5066034;28;20710;-70
2022/03/23 02:02:40;;;;;;;28.43;18.93;;;5.00;58.10;;;;;;5069267;28;20213;-70
2022/03/23 02:05:12;;;;;;;27.80;20.07;;;4.90;58.80;;;;;;5045986;28;20703;-70
2022/03/23 02:07:46;;;;;;;28.70;19.83;;;4.90;58.40;;;;;;5069921;28;20248;-70
2022/03/23 02:10:15;;;;;;;30.23;20.43;;;4.90;58.50;;;;;;5059840;28;20205;-70
2022/03/23 02:12:50;;;;;;;36.80;19.90;;;4.90;58.70;;;;;;5052360;28;20243;-70
2022/03/23 02:15:18;;;;;;;26.43;19.30;;;4.90;58.70;;;;;;5075267;28;20268;-70
2022/03/23 02:17:47;;;;;;;35.63;20.93;;;4.80;58.70;;;;;;5064371;28;20641;-70
2022/03/23 02:20:14;;;;;;;33.07;20.00;;;4.80;58.90;;;;;;5069621;28;20208;-70
2022/03/23 02:22:42;;;;;;;29.77;19.83;;;4.80;58.90;;;;;;5068025;28;20208;-70
2022/03/23 02:25:09;;;;;;;33.03;21.13;;;4.80;58.90;;;;;;5037776;28;20218;-70
2022/03/23 02:27:38;;;;;;;27.03;19.43;;;4.70;58.90;;;;;;5074056;28;20253;-70
2022/03/23 02:30:07;;;;;;;33.47;19.23;;;4.70;59.00;;;;;;5057642;28;20231;-70
2022/03/23 02:32:35;;;;;;;29.00;18.17;;;4.70;59.10;;;;;;5062583;28;20197;-70
2022/03/23 02:35:03;;;;;;;51.13;20.10;;;4.70;59.10;;;;;;5070766;28;20675;-70
2022/03/23 02:37:30;;;;;;;34.07;19.53;;;4.70;59.20;;;;;;5062623;28;20267;-70
2022/03/23 02:39:57;;;;;;;30.13;19.67;;;4.70;59.10;;;;;;5066186;28;20208;-70
2022/03/23 02:42:24;;;;;;;28.57;18.87;;;4.70;59.20;;;;;;5041889;28;20275;-70
2022/03/23 02:44:52;;;;;;;28.93;20.07;;;4.70;59.30;;;;;;5074966;28;20204;-70
2022/03/23 02:47:19;;;;;;;39.97;19.83;;;4.70;59.30;;;;;;5067700;28;20539;-70
2022/03/23 02:49:46;;;;;;;29.30;18.83;;;4.70;59.30;;;;;;5064485;28;20198;-70
2022/03/23 02:52:13;;;;;;;32.20;18.40;;;4.70;59.30;;;;;;5065617;28;20204;-70
2022/03/23 03:03:39;;;;;;;32.27;20.00;;;4.70;59.60;;;;;;5065804;28;20216;-70
2022/03/23 03:06:06;;;;;;;32.90;19.10;;;4.60;59.50;;;;;;5059175;28;20299;-70
2022/03/23 03:08:45;;;;;;;34.20;18.87;;;4.60;59.50;;;;;;5071561;28;20217;-70
2022/03/23 03:11:13;;;;;;;33.37;18.57;;;4.70;59.50;;;;;;5062099;28;20193;-70
2022/03/23 03:13:41;;;;;;;35.17;19.37;;;4.60;59.50;;;;;;5059797;28;20623;-70
2022/03/23 03:16:08;;;;;;;29.97;19.07;;;4.60;59.50;;;;;;5068751;28;20219;-70
2022/03/23 03:18:36;;;;;;;27.30;18.87;;;4.70;59.60;;;;;;5074549;28;20283;-70
2022/03/23 03:21:06;;;;;;;27.17;19.53;;;4.60;59.50;;;;;;5067277;28;20210;-70
2022/03/23 03:23:38;;;;;;;30.67;19.40;;;4.60;59.60;;;;;;5060065;28;20209;-68
2022/03/23 03:26:06;;;;;;;30.60;19.30;;;4.60;59.60;;;;;;5069603;28;20528;-69
2022/03/23 03:28:35;;;;;;;28.83;19.67;;;4.60;59.60;;;;;;5068318;28;20306;-70
2022/03/23 03:31:03;;;;;;;27.27;18.33;;;4.60;59.60;;;;;;5072711;28;20205;-70
2022/03/23 03:33:31;;;;;;;33.03;20.27;;;4.50;59.60;;;;;;5066335;28;20218;-70
2022/03/23 03:35:59;;;;;;;30.77;18.37;;;4.50;59.70;;;;;;5055242;28;20200;-70
2022/03/23 03:38:28;;;;;;;28.57;18.63;;;4.50;59.70;;;;;;5058692;28;20205;-70
2022/03/23 03:40:56;;;;;;;26.33;19.13;;;4.50;59.80;;;;;;5071361;28;20312;-70
2022/03/23 03:43:24;;;;;;;31.47;18.33;;;4.40;59.80;;;;;;5056931;28;20262;-70
2022/03/23 03:45:52;;;;;;;29.73;18.87;;;4.40;59.80;;;;;;5066370;28;20215;-70
2022/03/23 03:48:19;;;;;;;26.00;17.43;;;4.40;59.90;;;;;;5072951;28;20243;-70
2022/03/23 03:50:47;;;;;;;24.93;18.37;;;4.40;60.00;;;;;;5066546;28;20608;-70
2022/03/23 03:53:15;;;;;;;27.40;18.00;;;4.30;60.00;;;;;;5070607;28;20303;-70
2022/03/23 03:55:42;;;;;;;26.80;17.00;;;4.30;60.20;;;;;;5060623;28;20235;-70
2022/03/23 03:58:11;;;;;;;34.50;18.73;;;4.30;60.30;;;;;;5065721;28;20212;-70
2022/03/23 04:00:38;;;;;;;27.57;18.50;;;4.30;60.40;;;;;;5062218;28;20635;-70
2022/03/23 04:03:06;;;;;;;25.40;17.70;;;4.30;60.50;;;;;;5066241;28;20217;-70
2022/03/23 04:05:34;;;;;;;27.40;18.33;;;4.20;60.50;;;;;;5069430;28;20584;-70
2022/03/23 04:08:01;;;;;;;30.20;17.17;;;4.20;60.60;;;;;;5060992;28;20247;-70
2022/03/23 04:10:28;;;;;;;28.87;18.10;;;4.10;60.70;;;;;;5068653;28;20215;-70
2022/03/23 04:12:56;;;;;;;26.80;18.63;;;4.10;60.80;;;;;;5072378;28;20665;-70
2022/03/23 04:15:25;;;;;;;44.90;19.20;;;4.10;61.10;;;;;;5059107;28;20204;-70
2022/03/23 04:17:54;;;;;;;29.67;18.87;;;4.00;61.30;;;;;;5072100;28;20213;-70
2022/03/23 04:20:22;;;;;;;35.97;18.63;;;4.10;61.60;;;;;;5059456;28;20211;-70
2022/03/23 04:22:50;;;;;;;27.33;17.83;;;4.00;61.50;;;;;;5059183;28;20205;-70
2022/03/23 04:25:17;;;;;;;28.40;18.57;;;4.00;61.50;;;;;;5062972;28;20197;-70
2022/03/23 04:27:47;;;;;;;26.47;17.03;;;3.90;61.50;;;;;;5061463;28;20232;-70
2022/03/23 04:30:17;;;;;;;24.57;17.43;;;3.90;61.50;;;;;;5055373;28;20206;-70
2022/03/23 04:32:46;;;;;;;29.57;18.33;;;3.90;61.50;;;;;;5065204;28;20201;-70
2022/03/23 04:35:13;;;;;;;27.77;19.40;;;3.90;61.50;;;;;;5071185;28;20210;-70
2022/03/23 04:37:41;;;;;;;27.93;18.90;;;3.80;61.30;;;;;;5072819;28;20212;-70
2022/03/23 04:40:10;;;;;;;27.93;17.57;;;3.80;61.40;;;;;;5062928;28;20213;-70
2022/03/23 04:42:38;;;;;;;29.83;18.07;;;3.80;61.40;;;;;;5058697;28;20200;-69
2022/03/23 04:45:06;;;;;;;24.97;17.83;;;3.80;61.40;;;;;;5066381;28;20208;-69
2022/03/23 04:47:34;;;;;;;26.63;17.63;;;3.80;61.40;;;;;;5054259;28;20231;-69
2022/03/23 04:50:02;;;;;;;25.00;17.40;;;3.80;61.40;;;;;;5062912;28;20206;-69
2022/03/23 04:52:30;;;;;;;26.93;16.33;;;3.80;61.50;;;;;;5069595;28;20613;-69
2022/03/23 04:54:57;;;;;;;29.53;18.30;;;3.80;61.40;;;;;;5069616;28;20637;-69
2022/03/23 04:57:27;;;;;;;25.53;18.17;;;3.80;61.40;;;;;;5064645;28;20367;-69
2022/03/23 04:59:55;;;;;;;26.50;16.40;;;3.70;61.40;;;;;;5072671;28;20204;-69
2022/03/23 05:02:22;;;;;;;25.73;17.97;;;3.70;61.30;;;;;;5065222;28;20199;-70
2022/03/23 05:04:49;;;;;;;30.17;17.57;;;3.80;61.40;;;;;;5058608;28;20235;-70
2022/03/23 05:07:16;;;;;;;28.97;17.33;;;3.80;61.30;;;;;;5063164;28;20246;-70
2022/03/23 05:09:43;;;;;;;27.50;17.10;;;3.80;61.30;;;;;;5073451;28;20196;-70
2022/03/23 05:12:10;;;;;;;26.57;16.87;;;3.70;61.10;;;;;;5062153;28;20274;-69
2022/03/23 05:14:37;;;;;;;27.03;16.83;;;3.70;61.20;;;;;;5068908;28;20579;-69
2022/03/23 05:17:04;;;;;;;29.33;17.93;;;3.70;61.30;;;;;;5072779;28;20203;-69
2022/03/23 05:19:32;;;;;;;30.47;17.90;;;3.70;61.30;;;;;;5066504;28;20548;-70
2022/03/23 05:21:59;;;;;;;27.07;17.77;;;3.70;61.40;;;;;;5058391;28;20208;-70
2022/03/23 05:24:26;;;;;;;30.97;16.90;;;3.70;61.40;;;;;;5059549;28;20207;-70
2022/03/23 05:26:53;;;;;;;27.87;17.43;;;3.70;61.40;;;;;;5066167;28;20644;-70
2022/03/23 05:29:20;;;;;;;32.13;17.63;;;3.70;61.30;;;;;;5072104;28;20655;-70
2022/03/23 05:31:47;;;;;;;24.70;16.13;;;3.70;61.40;;;;;;5065187;28;20236;-70
2022/03/23 05:34:14;;;;;;;34.13;18.17;;;3.80;61.40;;;;;;5086126;28;20208;-70
2022/03/23 05:36:41;;;;;;;25.07;16.73;;;3.80;61.20;;;;;;5058800;28;20212;-70
2022/03/23 05:39:08;;;;;;;23.30;16.17;;;3.90;60.70;;;;;;5063858;28;20208;-70
2022/03/23 05:41:35;;;;;;;31.97;17.50;;;4.00;60.30;;;;;;5068167;28;20215;-70
2022/03/23 05:44:02;;;;;;;24.70;16.13;;;4.10;60.20;;;;;;5064760;28;20219;-70
2022/03/23 05:46:29;;;;;;;24.93;16.23;;;4.20;60.10;;;;;;5059938;28;20207;-70
2022/03/23 05:48:57;;;;;;;24.07;16.43;;;4.30;59.70;;;;;;5065656;28;20331;-70
2022/03/23 05:51:24;;;;;;;25.07;16.93;;;4.40;59.40;;;;;;5062370;28;20198;-70
2022/03/23 05:53:51;;;;;;;26.20;17.57;;;4.60;59.30;;;;;;5067206;28;20200;-70
2022/03/23 05:56:18;;;;;;;33.97;22.07;;;4.80;58.90;;;;;;5070513;28;20203;-70
2022/03/23 05:58:46;;;;;;;53.77;27.90;;;5.10;58.00;;;;;;5061128;28;20513;-70
2022/03/23 06:01:13;;;;;;;53.97;28.57;;;5.50;57.80;;;;;;5069712;28;20201;-70
2022/03/23 06:03:40;;;;;;;53.80;26.30;;;5.70;56.40;;;;;;5067715;28;20211;-70
2022/03/23 06:06:09;;;;;;;50.27;26.47;;;5.90;56.10;;;;;;5071713;28;20241;-70
2022/03/23 06:08:36;;;;;;;52.20;26.00;;;5.90;56.00;;;;;;5064722;28;20259;-70
2022/03/23 06:11:03;;;;;;;48.23;27.00;;;6.20;55.70;;;;;;5076790;28;20207;-70
2022/03/23 06:13:30;;;;;;;44.47;25.03;;;6.50;54.80;;;;;;5065281;28;20205;-70
2022/03/23 06:15:57;;;;;;;47.63;24.63;;;6.80;53.90;;;;;;5066963;28;20304;-70
2022/03/23 06:18:24;;;;;;;47.10;26.73;;;7.10;53.00;;;;;;5071908;28;20640;-70
2022/03/23 06:20:52;;;;;;;43.17;23.93;;;7.40;52.40;;;;;;5061504;28;20293;-70
2022/03/23 06:23:19;;;;;;;49.53;24.23;;;7.70;51.40;;;;;;5074644;28;20286;-69
2022/03/23 06:25:46;;;;;;;38.93;24.57;;;8.00;50.50;;;;;;5064600;28;20221;-69
2022/03/23 06:28:13;;;;;;;39.30;22.90;;;8.20;50.10;;;;;;5059864;28;20535;-69
2022/03/23 06:30:40;;;;;;;31.37;20.37;;;8.30;49.90;;;;;;5065812;28;20205;-69
2022/03/23 06:33:07;;;;;;;32.13;19.97;;;8.30;50.10;;;;;;5061402;28;20224;-69
2022/03/23 06:35:36;;;;;;;31.23;18.50;;;8.40;50.20;;;;;;5075218;28;20201;-69
2022/03/23 06:38:04;;;;;;;29.53;18.07;;;8.60;49.80;;;;;;5062044;28;20236;-69
2022/03/23 06:40:31;;;;;;;28.63;18.20;;;8.80;49.70;;;;;;5074103;28;20224;-70
2022/03/23 06:42:58;;;;;;;28.07;17.80;;;9.00;49.60;;;;;;5067272;28;20517;-70
2022/03/23 06:45:25;;;;;;;34.37;17.63;;;9.10;49.80;;;;;;5063588;28;20622;-70
2022/03/23 06:47:52;;;;;;;29.47;17.67;;;9.10;49.90;;;;;;5067369;28;20209;-70
2022/03/23 06:50:19;;;;;;;26.63;17.27;;;9.10;50.10;;;;;;5072055;28;20202;-70
2022/03/23 06:52:46;;;;;;;23.83;17.00;;;9.00;50.40;;;;;;5070722;28;20205;-70
2022/03/23 06:55:13;;;;;;;25.50;17.57;;;9.00;50.70;;;;;;5069499;28;20208;-70
2022/03/23 06:57:40;;;;;;;24.87;16.63;;;8.80;51.30;;;;;;5064724;28;20198;-68
2022/03/23 07:00:15;;;;;;;31.00;16.97;;;8.70;51.10;;;;;;5074672;28;20213;-68
2022/03/23 07:02:43;;;;;;;27.03;16.90;;;8.60;51.90;;;;;;5059286;28;20204;-69
2022/03/23 07:05:11;;;;;;;28.30;15.97;;;8.60;51.90;;;;;;5060942;28;20620;-69
2022/03/23 07:09:31;;;;;;;26.50;16.00;;;8.50;52.10;;;;;;5062301;28;20620;-69
2022/03/23 07:10:27;;;;;;;30.83;16.43;;;8.40;52.30;;;;;;5076242;28;20232;-69
2022/03/23 07:12:55;;;;;;;21.53;15.73;;;8.50;52.70;;;;;;5066829;28;20206;-68
2022/03/23 07:15:23;;;;;;;23.93;15.87;;;8.50;52.90;;;;;;5065922;28;20221;-68
2022/03/23 07:17:50;;;;;;;31.87;17.13;;;8.50;52.70;;;;;;5062727;28;20221;-68
2022/03/23 07:20:17;;;;;;;24.50;16.37;;;8.60;52.80;;;;;;5071869;28;20198;-68
2022/03/23 07:22:44;;;;;;;25.17;16.17;;;8.70;53.00;;;;;;5072169;28;20208;-68
2022/03/23 07:25:12;;;;;;;35.10;15.93;;;8.80;52.60;;;;;;5065323;28;20206;-69
2022/03/23 07:27:39;;;;;;;22.13;16.33;;;8.90;52.30;;;;;;5055624;28;20202;-68
2022/03/23 07:30:08;;;;;;;30.37;17.00;;;8.90;52.20;;;;;;5065211;28;20222;-69
2022/03/23 07:32:36;;;;;;;27.70;17.23;;;9.00;52.30;;;;;;5076009;28;20595;-69
2022/03/23 07:35:04;;;;;;;24.10;17.43;;;9.20;52.20;;;;;;5070785;28;20504;-69
2022/03/23 07:37:32;;;;;;;21.73;16.70;;;9.30;52.20;;;;;;5063126;28;20252;-68
2022/03/23 07:39:59;;;;;;;20.33;16.00;;;9.50;52.50;;;;;;5074532;28;20320;-68
2022/03/23 07:42:30;;;;;;;27.57;17.07;;;9.70;52.40;;;;;;5066062;28;20282;-68
2022/03/23 07:44:57;;;;;;;34.30;17.20;;;9.80;51.70;;;;;;5060773;28;20667;-68
2022/03/23 07:47:24;;;;;;;33.30;16.90;;;10.00;51.40;;;;;;5073951;28;20428;-68
2022/03/23 07:49:52;;;;;;;26.13;17.33;;;10.20;51.50;;;;;;5071222;28;20234;-68
2022/03/23 07:52:19;;;;;;;29.57;16.10;;;10.50;51.40;;;;;;5062761;28;20199;-68
2022/03/23 07:54:46;;;;;;;25.43;14.83;;;10.70;49.50;;;;;;5063982;28;20523;-68
2022/03/23 07:57:13;;;;;;;22.13;14.87;;;10.90;48.80;;;;;;5055126;28;20212;-68
2022/03/23 07:59:41;;;;;;;97.20;49.23;;;11.00;47.80;;;;;;5064372;28;20205;-68
2022/03/23 08:02:08;;;;;;;33.60;19.93;;;11.20;48.20;;;;;;5075276;28;20657;-68
2022/03/23 08:04:36;;;;;;;28.27;17.83;;;11.30;46.90;;;;;;5070018;28;20234;-68
2022/03/23 08:07:03;;;;;;;24.33;17.50;;;11.50;46.50;;;;;;5063050;28;20244;-68
2022/03/23 08:09:30;;;;;;;23.53;15.47;;;11.70;46.90;;;;;;5054938;28;20221;-68
2022/03/23 08:11:58;;;;;;;24.23;16.13;;;11.90;46.50;;;;;;5063844;28;20536;-68
2022/03/23 08:14:25;;;;;;;23.00;15.37;;;12.10;46.10;;;;;;5060928;28;20212;-68
2022/03/23 08:16:53;;;;;;;18.33;14.37;;;12.40;45.80;;;;;;5069372;28;20257;-69
2022/03/23 08:19:22;;;;;;;35.73;15.40;;;12.60;45.20;;;;;;5061403;28;20292;-69
2022/03/23 08:21:50;;;;;;;22.40;15.43;;;12.80;44.60;;;;;;5063363;28;20213;-69
2022/03/23 08:24:18;;;;;;;19.53;15.00;;;13.00;44.00;;;;;;5066951;28;20636;-69
2022/03/23 08:26:46;;;;;;;26.80;15.67;;;13.20;43.60;;;;;;5057479;28;20204;-69
2022/03/23 08:29:13;;;;;;;21.27;14.60;;;13.40;43.00;;;;;;5063010;28;20226;-69
2022/03/23 08:31:40;;;;;;;20.00;14.43;;;13.50;42.00;;;;;;5070948;28;20205;-69
2022/03/23 08:34:07;;;;;;;24.33;14.43;;;13.70;41.90;;;;;;5070463;28;20204;-69
2022/03/23 08:36:34;;;;;;;20.30;13.17;;;13.70;40.70;;;;;;5062577;28;20201;-69
2022/03/23 08:39:01;;;;;;;19.50;14.33;;;13.70;41.10;;;;;;5065595;28;20204;-69
2022/03/23 08:41:33;;;;;;;17.43;14.07;;;13.80;41.60;;;;;;5059901;28;20214;-69
2022/03/23 08:44:01;;;;;;;17.73;14.60;;;13.90;40.90;;;;;;5066458;28;20222;-69
2022/03/23 08:46:28;;;;;;;26.07;14.37;;;14.00;40.70;;;;;;5064163;28;20222;-69
2022/03/23 08:48:55;;;;;;;21.70;14.07;;;14.10;38.40;;;;;;5059355;28;20728;-68
2022/03/23 08:51:22;;;;;;;20.77;14.33;;;14.20;39.90;;;;;;5068088;28;20194;-68
2022/03/23 08:53:49;;;;;;;17.83;14.27;;;14.30;39.80;;;;;;5062748;28;20236;-68
2022/03/23 08:56:16;;;;;;;21.73;15.10;;;14.50;40.30;;;;;;5071751;28;20204;-68
2022/03/23 08:58:47;;;;;;;18.13;14.63;;;14.60;39.60;;;;;;5066108;28;20193;-68
2022/03/23 09:01:16;;;;;;;21.30;15.27;;;14.80;39.40;;;;;;5068388;28;20286;-69
2022/03/23 09:03:44;;;;;;;19.37;14.43;;;15.00;39.10;;;;;;5069137;28;20687;-69
2022/03/23 09:06:11;;;;;;;21.53;15.50;;;15.10;37.10;;;;;;5060024;28;20212;-69
2022/03/23 09:08:38;;;;;;;19.63;15.57;;;15.10;37.50;;;;;;5053902;28;20245;-69
2022/03/23 09:11:05;;;;;;;22.40;15.17;;;15.10;39.20;;;;;;5066921;28;20660;-69
2022/03/23 09:13:32;;;;;;;23.67;14.43;;;15.20;39.80;;;;;;5070692;28;20517;-69
2022/03/23 09:16:00;;;;;;;20.10;14.43;;;15.40;39.90;;;;;;5062462;28;20197;-69
2022/03/23 09:18:28;;;;;;;17.93;13.93;;;15.70;39.50;;;;;;5058847;28;20646;-69
2022/03/23 09:20:56;;;;;;;16.60;13.50;;;15.90;38.20;;;;;;5049894;28;20286;-69
2022/03/23 09:23:30;;;;;;;20.90;14.00;;;16.10;37.60;;;;;;5062019;28;20202;-69
2022/03/23 09:26:00;;;;;;;24.47;14.77;;;16.30;37.20;;;;;;5055347;28;20206;-69
2022/03/23 09:28:27;;;;;;;20.97;15.70;;;16.50;37.20;;;;;;5060728;28;20197;-69
2022/03/23 09:30:55;;;;;;;22.17;15.57;;;16.70;35.30;;;;;;5069610;28;20209;-69
2022/03/23 09:33:22;;;;;;;22.90;15.20;;;16.70;35.70;;;;;;5063304;28;20217;-70
2022/03/23 09:35:49;;;;;;;24.40;16.20;;;16.70;36.20;;;;;;5071485;28;20209;-70
2022/03/23 09:38:16;;;;;;;20.53;15.03;;;16.70;35.90;;;;;;5070751;28;20260;-70
2022/03/23 09:40:46;;;;;;;23.03;16.13;;;16.80;35.00;;;;;;5065272;28;20206;-70
2022/03/23 09:43:15;;;;;;;19.57;15.77;;;16.90;36.00;;;;;;5053283;28;20213;-70
2022/03/23 09:48:11;;;;;;;19.53;15.60;;;17.20;36.60;;;;;;5057287;28;20198;-70
2022/03/23 09:50:43;;;;;;;19.77;15.87;;;17.40;35.60;;;;;;5055719;28;20309;-70
2022/03/23 09:53:11;;;;;;;19.80;15.80;;;17.60;33.50;;;;;;5062672;28;20634;-70
2022/03/23 09:55:38;;;;;;;21.07;15.83;;;17.40;33.70;;;;;;5070030;28;20221;-70
2022/03/23 09:58:06;;;;;;;25.00;16.20;;;17.30;33.30;;;;;;5063312;28;20719;-69
2022/03/23 10:00:42;;;;;;;20.87;15.77;;;17.10;33.40;;;;;;5065480;28;20215;-69
2022/03/23 10:03:09;;;;;;;17.57;14.90;;;17.00;32.60;;;;;;5069619;28;20232;-69
2022/03/23 10:06:08;;;;;;;18.17;15.97;;;16.90;33.40;;;;;;5062715;28;20209;-69
2022/03/23 10:09:13;;;;;;;19.43;15.70;;;17.00;33.80;;;;;;5057203;28;20210;-70
2022/03/23 10:12:01;;;;;;;19.50;16.40;;;17.10;31.70;;;;;;5064155;28;20206;-70
2022/03/23 10:15:05;;;;;;;22.90;15.60;;;17.20;32.20;;;;;;5055520;28;20212;-70
2022/03/23 10:17:44;;;;;;;23.57;18.47;;;17.20;33.30;;;;;;5061123;28;20577;-70
2022/03/23 10:20:14;;;;;;;30.10;18.03;;;17.30;34.10;;;;;;5070353;28;20201;-69
2022/03/23 10:22:52;;;;;;;28.73;19.73;;;17.50;34.40;;;;;;5062477;28;20557;-69
2022/03/23 10:25:26;;;;;;;23.73;18.17;;;17.70;33.80;;;;;;5064834;28;20513;-70
2022/03/23 10:27:57;;;;;;;20.97;17.70;;;17.90;34.40;;;;;;5057225;28;20272;-70
2022/03/23 10:30:34;;;;;;;22.60;17.53;;;18.00;32.30;;;;;;5069265;28;20253;-70
2022/03/23 10:33:01;;;;;;;28.77;16.57;;;18.10;32.60;;;;;;5066559;28;20214;-70
2022/03/23 10:35:40;;;;;;;26.03;18.93;;;18.20;32.30;;;;;;5069181;28;20197;-70
2022/03/23 10:38:24;;;;;;;22.53;17.30;;;18.40;32.70;;;;;;5063533;28;20212;-70
2022/03/23 10:40:53;;;;;;;22.93;18.70;;;18.50;32.60;;;;;;5063599;28;20217;-70
2022/03/23 10:43:33;;;;;;;24.20;17.93;;;18.60;32.90;;;;;;5058387;28;20209;-70
2022/03/23 10:46:11;;;;;;;19.63;15.33;;;18.80;33.30;;;;;;5062419;28;20264;-70
2022/03/23 10:48:58;;;;;;;26.33;19.37;;;18.90;30.30;;;;;;5084008;28;20272;-70
2022/03/23 10:51:30;;;;;;;25.50;16.57;;;18.80;30.10;;;;;;5067929;28;20196;-70
2022/03/23 10:53:58;;;;;;;21.97;17.27;;;18.80;30.00;;;;;;5059184;28;20536;-69
2022/03/23 10:56:36;;;;;;;23.53;17.20;;;18.80;30.20;;;;;;5071078;28;20553;-69
2022/03/23 10:59:25;;;;;;;20.87;16.93;;;19.00;30.80;;;;;;5062162;28;20199;-69
2022/03/23 11:02:03;;;;;;;22.23;15.70;;;19.10;30.70;;;;;;5072689;28;20311;-70
2022/03/23 11:04:49;;;;;;;19.33;15.60;;;19.10;30.80;;;;;;5064788;28;20273;-70
2022/03/23 11:07:25;;;;;;;17.80;14.37;;;19.10;30.20;;;;;;5057981;28;20252;-70
2022/03/23 11:18:15;;;;;;;24.13;15.07;;;19.10;28.70;;;;;;5088280;28;20886;-70
2022/03/23 11:20:46;;;;;;;20.80;14.20;;;19.10;28.10;;;;;;5067310;28;20212;-70
2022/03/23 11:23:26;;;;;;;20.73;15.27;;;19.20;28.20;;;;;;5071493;28;20691;-70
2022/03/23 11:26:02;;;;;;;21.00;14.93;;;19.30;28.30;;;;;;5067997;28;20239;-70
2022/03/23 11:28:36;;;;;;;15.10;12.00;;;19.30;28.60;;;;;;5066549;28;20638;-70
2022/03/23 11:31:08;;;;;;;17.97;13.20;;;19.40;28.70;;;;;;5067409;28;20237;-70
2022/03/23 11:33:37;;;;;;;15.07;13.27;;;19.50;27.70;;;;;;5063056;28;20212;-70
2022/03/23 11:36:10;;;;;;;21.30;14.97;;;19.50;27.30;;;;;;5055289;28;20292;-70
2022/03/23 11:38:39;;;;;;;19.37;15.60;;;19.60;28.00;;;;;;5062273;28;20192;-70
2022/03/23 11:41:09;;;;;;;16.57;11.93;;;19.80;28.60;;;;;;5070476;28;20212;-70
2022/03/23 11:43:37;;;;;;;14.30;12.47;;;19.90;26.90;;;;;;5070160;28;20271;-70
2022/03/23 11:46:21;;;;;;;13.97;11.73;;;19.90;26.50;;;;;;5065493;28;20521;-70
2022/03/23 11:49:00;;;;;;;15.97;11.80;;;19.90;27.00;;;;;;5054437;28;20296;-69
2022/03/23 11:51:36;;;;;;;15.27;11.43;;;19.90;27.20;;;;;;5064130;28;20203;-69
2022/03/23 11:54:26;;;;;;;14.40;11.67;;;20.00;26.60;;;;;;5072694;28;20208;-70
2022/03/23 11:56:58;;;;;;;13.60;12.20;;;19.90;27.00;;;;;;5064306;28;20205;-70
2022/03/23 11:59:29;;;;;;;14.37;12.63;;;19.80;27.00;;;;;;5062866;28;20224;-69
2022/03/23 12:01:58;;;;;;;22.17;13.07;;;19.90;27.30;;;;;;5064287;28;20245;-69
2022/03/23 12:04:28;;;;;;;16.87;13.13;;;20.00;27.20;;;;;;5066531;28;20214;-69
2022/03/23 12:07:09;;;;;;;15.70;13.17;;;20.20;27.20;;;;;;5059202;28;20237;-70
2022/03/23 12:09:41;;;;;;;14.53;12.40;;;20.20;27.40;;;;;;5066663;28;20230;-70
2022/03/23 12:12:29;;;;;;;15.77;12.43;;;20.20;27.40;;;;;;5074072;28;20269;-70
2022/03/23 12:15:25;;;;;;;13.00;11.60;;;20.20;26.50;;;;;;5065133;28;20550;-70
2022/03/23 12:17:56;;;;;;;13.30;11.37;;;20.10;25.70;;;;;;5037029;28;20212;-70
2022/03/23 12:20:46;;;;;;;14.77;12.60;;;20.00;26.10;;;;;;5064065;28;20659;-70
2022/03/23 12:23:42;;;;;;;13.93;12.43;;;20.00;25.90;;;;;;5056903;28;20244;-70
2022/03/23 12:26:30;;;;;;;14.93;13.33;;;20.00;26.40;;;;;;5073942;28;20212;-70
2022/03/23 12:29:05;;;;;;;16.23;14.53;;;20.00;27.00;;;;;;5058923;28;20211;-70
2022/03/23 12:31:38;;;;;;;15.07;12.90;;;20.00;27.20;;;;;;5064812;28;20262;-70
2022/03/23 12:34:07;;;;;;;14.83;12.70;;;20.00;27.20;;;;;;5064644;28;20255;-70
2022/03/23 12:39:46;;;;;;;17.83;14.20;;;20.20;26.10;;;;;;5063203;28;20208;-70
2022/03/23 12:42:16;;;;;;;15.57;13.73;;;20.30;26.50;;;;;;5052513;28;20671;-70
2022/03/23 12:44:49;;;;;;;20.77;13.10;;;20.30;27.00;;;;;;5062479;28;20240;-71
2022/03/23 12:47:21;;;;;;;16.07;13.40;;;20.40;26.70;;;;;;5069127;28;20215;-70
2022/03/23 12:58:26;;;;;;;18.57;12.93;;;20.70;26.40;;;;;;5057225;28;20216;-70
2022/03/23 13:00:55;;;;;;;16.77;13.33;;;20.70;26.20;;;;;;5059566;28;20232;-70
2022/03/23 13:03:23;;;;;;;19.53;12.83;;;20.80;26.60;;;;;;5065098;28;20203;-70
2022/03/23 13:05:57;;;;;;;16.70;13.90;;;20.80;26.40;;;;;;5062076;28;20223;-71
2022/03/23 13:08:30;;;;;;;16.00;12.47;;;20.90;25.90;;;;;;5064489;28;20232;-70
2022/03/23 13:11:06;;;;;;;17.27;12.87;;;20.90;26.10;;;;;;5057344;28;20298;-70
2022/03/23 13:13:35;;;;;;;13.37;11.53;;;20.90;26.00;;;;;;5074687;28;20209;-70
2022/03/23 13:16:04;;;;;;;19.53;12.80;;;20.80;25.10;;;;;;5067979;28;20196;-70
2022/03/23 13:18:32;;;;;;;15.03;12.43;;;20.70;25.30;;;;;;5070193;28;20205;-71